sensor_id;sensor_type;location;lat;lon;timestamp;temperature;humidity
4376;DHT22;2202;50.866;12.750;2023-12-22T00:02:20;3.30;87.00
4376;DHT22;2202;50.866;12.750;2023-12-22T00:04:46;3.40;86.80
4376;DHT22;2202;50.866;12.750;2023-12-22T00:07:15;3.30;87.20
4376;DHT22;2202;50.866;12.750;2023-12-22T00:09:42;3.30;87.20
4376;DHT22;2202;50.866;12.750;2023-12-22T00:12:09;3.30;86.80
4376;DHT22;2202;50.866;12.750;2023-12-22T00:14:35;3.40;86.20
4376;DHT22;2202;50.866;12.750;2023-12-22T00:17:03;3.40;85.80
4376;DHT22;2202;50.866;12.750;2023-12-22T00:19:30;3.50;85.20
4376;DHT22;2202;50.866;12.750;2023-12-22T00:21:57;3.50;84.60
4376;DHT22;2202;50.866;12.750;2023-12-22T00:24:25;3.50;84.40
4376;DHT22;2202;50.866;12.750;2023-12-22T00:26:52;3.50;83.40
4376;DHT22;2202;50.866;12.750;2023-12-22T00:29:19;3.50;83.60
4376;DHT22;2202;50.866;12.750;2023-12-22T00:31:46;3.50;83.60
4376;DHT22;2202;50.866;12.750;2023-12-22T00:34:13;3.50;83.00
4376;DHT22;2202;50.866;12.750;2023-12-22T00:36:39;3.50;82.60
4376;DHT22;2202;50.866;12.750;2023-12-22T00:39:07;3.50;83.00
4376;DHT22;2202;50.866;12.750;2023-12-22T00:41:35;3.50;81.40
4376;DHT22;2202;50.866;12.750;2023-12-22T00:44:02;3.50;80.40
4376;DHT22;2202;50.866;12.750;2023-12-22T00:46:29;3.50;80.80
4376;DHT22;2202;50.866;12.750;2023-12-22T00:48:56;3.50;80.60
4376;DHT22;2202;50.866;12.750;2023-12-22T00:51:23;3.50;79.60
4376;DHT22;2202;50.866;12.750;2023-12-22T00:53:50;3.50;80.00
4376;DHT22;2202;50.866;12.750;2023-12-22T00:56:16;3.50;79.00
4376;DHT22;2202;50.866;12.750;2023-12-22T00:58:45;3.50;79.00
4376;DHT22;2202;50.866;12.750;2023-12-22T01:01:12;3.50;77.80
4376;DHT22;2202;50.866;12.750;2023-12-22T01:03:38;3.60;76.60
4376;DHT22;2202;50.866;12.750;2023-12-22T01:06:05;3.60;77.00
4376;DHT22;2202;50.866;12.750;2023-12-22T01:08:32;3.60;76.80
4376;DHT22;2202;50.866;12.750;2023-12-22T01:10:59;3.60;76.60
4376;DHT22;2202;50.866;12.750;2023-12-22T01:13:26;3.60;77.60
4376;DHT22;2202;50.866;12.750;2023-12-22T01:15:54;3.50;77.40
4376;DHT22;2202;50.866;12.750;2023-12-22T01:18:21;3.40;76.60
4376;DHT22;2202;50.866;12.750;2023-12-22T01:20:50;3.40;77.00
4376;DHT22;2202;50.866;12.750;2023-12-22T01:23:17;3.40;76.40
4376;DHT22;2202;50.866;12.750;2023-12-22T01:25:44;3.50;75.40
4376;DHT22;2202;50.866;12.750;2023-12-22T01:28:11;3.50;76.20
4376;DHT22;2202;50.866;12.750;2023-12-22T01:30:38;3.50;75.80
4376;DHT22;2202;50.866;12.750;2023-12-22T01:33:06;3.50;75.60
4376;DHT22;2202;50.866;12.750;2023-12-22T01:35:33;3.60;74.40
4376;DHT22;2202;50.866;12.750;2023-12-22T01:38:00;3.60;75.40
4376;DHT22;2202;50.866;12.750;2023-12-22T01:40:27;3.60;75.00
4376;DHT22;2202;50.866;12.750;2023-12-22T01:42:54;3.60;75.00
4376;DHT22;2202;50.866;12.750;2023-12-22T01:45:21;3.60;74.00
4376;DHT22;2202;50.866;12.750;2023-12-22T01:47:48;3.60;74.40
4376;DHT22;2202;50.866;12.750;2023-12-22T01:50:16;3.60;74.20
4376;DHT22;2202;50.866;12.750;2023-12-22T01:52:44;3.60;74.20
4376;DHT22;2202;50.866;12.750;2023-12-22T01:55:12;3.70;76.00
4376;DHT22;2202;50.866;12.750;2023-12-22T01:57:40;3.70;74.40
4376;DHT22;2202;50.866;12.750;2023-12-22T02:00:08;3.70;74.60
4376;DHT22;2202;50.866;12.750;2023-12-22T02:02:35;3.70;74.00
4376;DHT22;2202;50.866;12.750;2023-12-22T02:05:04;3.70;74.40
4376;DHT22;2202;50.866;12.750;2023-12-22T02:07:33;3.70;74.80
4376;DHT22;2202;50.866;12.750;2023-12-22T02:10:00;3.60;74.80
4376;DHT22;2202;50.866;12.750;2023-12-22T02:12:29;3.60;74.60
4376;DHT22;2202;50.866;12.750;2023-12-22T02:14:56;3.60;74.60
4376;DHT22;2202;50.866;12.750;2023-12-22T02:17:26;3.50;74.80
4376;DHT22;2202;50.866;12.750;2023-12-22T02:19:56;3.60;74.80
4376;DHT22;2202;50.866;12.750;2023-12-22T02:22:24;3.60;75.00
4376;DHT22;2202;50.866;12.750;2023-12-22T02:24:52;3.60;74.20
4376;DHT22;2202;50.866;12.750;2023-12-22T02:27:25;3.60;74.60
4376;DHT22;2202;50.866;12.750;2023-12-22T02:30:00;3.60;74.20
4376;DHT22;2202;50.866;12.750;2023-12-22T02:32:32;3.60;74.60
4376;DHT22;2202;50.866;12.750;2023-12-22T02:35:04;3.70;74.20
4376;DHT22;2202;50.866;12.750;2023-12-22T02:37:34;3.70;74.00
4376;DHT22;2202;50.866;12.750;2023-12-22T02:40:03;3.60;74.60
4376;DHT22;2202;50.866;12.750;2023-12-22T02:42:30;3.70;74.40
4376;DHT22;2202;50.866;12.750;2023-12-22T02:44:58;3.70;74.80
4376;DHT22;2202;50.866;12.750;2023-12-22T02:47:25;3.70;74.40
4376;DHT22;2202;50.866;12.750;2023-12-22T02:49:53;3.70;74.60
4376;DHT22;2202;50.866;12.750;2023-12-22T02:52:20;3.80;74.80
4376;DHT22;2202;50.866;12.750;2023-12-22T02:54:47;3.80;74.80
4376;DHT22;2202;50.866;12.750;2023-12-22T02:57:15;3.70;75.40
4376;DHT22;2202;50.866;12.750;2023-12-22T02:59:42;3.70;75.20
4376;DHT22;2202;50.866;12.750;2023-12-22T03:02:09;3.70;75.20
4376;DHT22;2202;50.866;12.750;2023-12-22T03:04:36;3.70;75.00
4376;DHT22;2202;50.866;12.750;2023-12-22T03:07:03;3.60;75.80
4376;DHT22;2202;50.866;12.750;2023-12-22T03:09:30;3.60;75.40
4376;DHT22;2202;50.866;12.750;2023-12-22T03:11:57;3.60;75.20
4376;DHT22;2202;50.866;12.750;2023-12-22T03:14:29;3.70;75.60
4376;DHT22;2202;50.866;12.750;2023-12-22T03:16:55;3.70;75.60
4376;DHT22;2202;50.866;12.750;2023-12-22T03:19:22;3.60;75.20
4376;DHT22;2202;50.866;12.750;2023-12-22T03:21:49;3.60;75.80
4376;DHT22;2202;50.866;12.750;2023-12-22T03:24:16;3.60;76.00
4376;DHT22;2202;50.866;12.750;2023-12-22T03:26:44;3.60;76.20
4376;DHT22;2202;50.866;12.750;2023-12-22T03:29:11;3.60;75.40
4376;DHT22;2202;50.866;12.750;2023-12-22T03:31:40;3.60;76.60
4376;DHT22;2202;50.866;12.750;2023-12-22T03:34:07;3.50;77.20
4376;DHT22;2202;50.866;12.750;2023-12-22T03:36:34;3.60;77.00
4376;DHT22;2202;50.866;12.750;2023-12-22T03:39:01;3.60;77.40
4376;DHT22;2202;50.866;12.750;2023-12-22T03:41:28;3.50;77.00
4376;DHT22;2202;50.866;12.750;2023-12-22T03:43:55;3.50;77.40
4376;DHT22;2202;50.866;12.750;2023-12-22T03:46:22;3.50;77.20
4376;DHT22;2202;50.866;12.750;2023-12-22T03:48:51;3.50;79.20
4376;DHT22;2202;50.866;12.750;2023-12-22T03:51:18;3.30;83.60
4376;DHT22;2202;50.866;12.750;2023-12-22T03:53:45;2.90;90.10
4376;DHT22;2202;50.866;12.750;2023-12-22T03:56:12;2.50;91.80
4376;DHT22;2202;50.866;12.750;2023-12-22T03:58:39;2.10;93.60
4376;DHT22;2202;50.866;12.750;2023-12-22T04:01:05;1.80;95.40
4376;DHT22;2202;50.866;12.750;2023-12-22T04:03:33;1.70;96.30
4376;DHT22;2202;50.866;12.750;2023-12-22T04:06:03;1.60;97.00
4376;DHT22;2202;50.866;12.750;2023-12-22T04:08:30;1.60;97.40
4376;DHT22;2202;50.866;12.750;2023-12-22T04:10:57;1.50;97.60
4376;DHT22;2202;50.866;12.750;2023-12-22T04:13:24;1.40;98.10
4376;DHT22;2202;50.866;12.750;2023-12-22T04:15:51;1.30;98.50
4376;DHT22;2202;50.866;12.750;2023-12-22T04:18:18;1.20;98.80
4376;DHT22;2202;50.866;12.750;2023-12-22T04:20:45;1.00;99.30
4376;DHT22;2202;50.866;12.750;2023-12-22T04:23:13;0.80;99.80
4376;DHT22;2202;50.866;12.750;2023-12-22T04:25:40;0.80;99.90
4376;DHT22;2202;50.866;12.750;2023-12-22T04:28:07;0.80;99.90
4376;DHT22;2202;50.866;12.750;2023-12-22T04:30:33;0.80;99.90
4376;DHT22;2202;50.866;12.750;2023-12-22T04:33:01;0.80;99.90
4376;DHT22;2202;50.866;12.750;2023-12-22T04:35:28;1.00;99.90
4376;DHT22;2202;50.866;12.750;2023-12-22T04:37:54;1.40;99.30
4376;DHT22;2202;50.866;12.750;2023-12-22T04:40:23;1.50;98.50
4376;DHT22;2202;50.866;12.750;2023-12-22T04:42:50;1.60;98.00
4376;DHT22;2202;50.866;12.750;2023-12-22T04:45:17;1.80;96.40
4376;DHT22;2202;50.866;12.750;2023-12-22T04:47:44;1.90;95.20
4376;DHT22;2202;50.866;12.750;2023-12-22T04:50:11;2.00;94.60
4376;DHT22;2202;50.866;12.750;2023-12-22T04:52:38;2.10;93.60
4376;DHT22;2202;50.866;12.750;2023-12-22T04:55:05;2.10;93.60
4376;DHT22;2202;50.866;12.750;2023-12-22T04:57:33;2.10;93.90
4376;DHT22;2202;50.866;12.750;2023-12-22T05:00:00;2.10;93.90
4376;DHT22;2202;50.866;12.750;2023-12-22T05:02:27;2.10;94.10
4376;DHT22;2202;50.866;12.750;2023-12-22T05:04:55;2.10;94.00
4376;DHT22;2202;50.866;12.750;2023-12-22T05:07:21;2.10;93.60
4376;DHT22;2202;50.866;12.750;2023-12-22T05:09:48;2.10;93.10
4376;DHT22;2202;50.866;12.750;2023-12-22T05:12:17;2.10;93.00
4376;DHT22;2202;50.866;12.750;2023-12-22T05:14:46;2.10;93.10
4376;DHT22;2202;50.866;12.750;2023-12-22T05:17:13;2.10;92.90
4376;DHT22;2202;50.866;12.750;2023-12-22T05:19:40;2.10;92.20
4376;DHT22;2202;50.866;12.750;2023-12-22T05:22:07;2.10;91.80
4376;DHT22;2202;50.866;12.750;2023-12-22T05:24:34;2.20;91.40
4376;DHT22;2202;50.866;12.750;2023-12-22T05:27:01;2.20;91.10
4376;DHT22;2202;50.866;12.750;2023-12-22T05:29:28;2.20;90.70
4376;DHT22;2202;50.866;12.750;2023-12-22T05:31:57;2.20;90.80
4376;DHT22;2202;50.866;12.750;2023-12-22T05:34:23;2.20;90.70
4376;DHT22;2202;50.866;12.750;2023-12-22T05:36:50;2.20;90.80
4376;DHT22;2202;50.866;12.750;2023-12-22T05:39:17;2.10;90.80
4376;DHT22;2202;50.866;12.750;2023-12-22T05:41:44;2.10;90.80
4376;DHT22;2202;50.866;12.750;2023-12-22T05:44:11;2.10;90.60
4376;DHT22;2202;50.866;12.750;2023-12-22T05:46:38;2.10;90.90
4376;DHT22;2202;50.866;12.750;2023-12-22T05:49:06;2.00;91.00
4376;DHT22;2202;50.866;12.750;2023-12-22T05:51:37;2.00;90.90
4376;DHT22;2202;50.866;12.750;2023-12-22T05:54:04;2.00;90.90
4376;DHT22;2202;50.866;12.750;2023-12-22T05:56:32;2.00;90.60
4376;DHT22;2202;50.866;12.750;2023-12-22T05:58:59;2.00;90.50
4376;DHT22;2202;50.866;12.750;2023-12-22T06:01:26;2.10;89.80
4376;DHT22;2202;50.866;12.750;2023-12-22T06:03:53;2.10;89.80
4376;DHT22;2202;50.866;12.750;2023-12-22T06:06:25;2.10;90.20
4376;DHT22;2202;50.866;12.750;2023-12-22T06:08:53;2.10;90.70
4376;DHT22;2202;50.866;12.750;2023-12-22T06:11:20;2.10;91.10
4376;DHT22;2202;50.866;12.750;2023-12-22T06:13:47;2.10;91.70
4376;DHT22;2202;50.866;12.750;2023-12-22T06:16:14;2.00;92.00
4376;DHT22;2202;50.866;12.750;2023-12-22T06:18:44;2.00;92.30
4376;DHT22;2202;50.866;12.750;2023-12-22T06:21:11;2.00;92.50
4376;DHT22;2202;50.866;12.750;2023-12-22T06:23:39;2.00;92.50
4376;DHT22;2202;50.866;12.750;2023-12-22T06:26:08;2.00;92.70
4376;DHT22;2202;50.866;12.750;2023-12-22T06:28:36;2.00;92.50
4376;DHT22;2202;50.866;12.750;2023-12-22T06:31:04;2.00;92.50
4376;DHT22;2202;50.866;12.750;2023-12-22T06:33:31;2.00;92.50
4376;DHT22;2202;50.866;12.750;2023-12-22T06:35:58;2.00;92.40
4376;DHT22;2202;50.866;12.750;2023-12-22T06:38:24;2.00;92.30
4376;DHT22;2202;50.866;12.750;2023-12-22T06:40:53;2.00;92.20
4376;DHT22;2202;50.866;12.750;2023-12-22T06:43:20;2.00;92.20
4376;DHT22;2202;50.866;12.750;2023-12-22T06:45:47;2.00;91.70
4376;DHT22;2202;50.866;12.750;2023-12-22T06:48:15;2.10;91.50
4376;DHT22;2202;50.866;12.750;2023-12-22T06:50:41;2.10;91.80
4376;DHT22;2202;50.866;12.750;2023-12-22T06:53:10;2.10;91.50
4376;DHT22;2202;50.866;12.750;2023-12-22T06:55:37;2.20;91.40
4376;DHT22;2202;50.866;12.750;2023-12-22T06:58:05;2.20;91.30
4376;DHT22;2202;50.866;12.750;2023-12-22T07:00:32;2.20;91.30
4376;DHT22;2202;50.866;12.750;2023-12-22T07:02:59;2.20;91.10
4376;DHT22;2202;50.866;12.750;2023-12-22T07:05:33;2.20;91.00
4376;DHT22;2202;50.866;12.750;2023-12-22T07:08:03;2.20;91.00
4376;DHT22;2202;50.866;12.750;2023-12-22T07:10:30;2.20;90.90
4376;DHT22;2202;50.866;12.750;2023-12-22T07:12:57;2.30;91.00
4376;DHT22;2202;50.866;12.750;2023-12-22T07:15:25;2.30;90.70
4376;DHT22;2202;50.866;12.750;2023-12-22T07:17:54;2.30;91.30
4376;DHT22;2202;50.866;12.750;2023-12-22T07:20:20;2.30;91.90
4376;DHT22;2202;50.866;12.750;2023-12-22T07:22:47;2.20;92.60
4376;DHT22;2202;50.866;12.750;2023-12-22T07:25:14;2.20;93.30
4376;DHT22;2202;50.866;12.750;2023-12-22T07:27:41;2.20;93.80
4376;DHT22;2202;50.866;12.750;2023-12-22T07:30:09;2.10;94.30
4376;DHT22;2202;50.866;12.750;2023-12-22T07:32:43;2.00;95.00
4376;DHT22;2202;50.866;12.750;2023-12-22T07:35:10;1.90;96.00
4376;DHT22;2202;50.866;12.750;2023-12-22T07:37:37;1.80;97.00
4376;DHT22;2202;50.866;12.750;2023-12-22T07:40:05;1.60;97.80
4376;DHT22;2202;50.866;12.750;2023-12-22T07:42:32;1.50;98.40
4376;DHT22;2202;50.866;12.750;2023-12-22T07:44:59;1.50;98.40
4376;DHT22;2202;50.866;12.750;2023-12-22T07:47:27;1.50;98.50
4376;DHT22;2202;50.866;12.750;2023-12-22T07:49:55;1.50;98.60
4376;DHT22;2202;50.866;12.750;2023-12-22T07:52:22;1.40;98.60
4376;DHT22;2202;50.866;12.750;2023-12-22T07:54:49;1.40;98.50
4376;DHT22;2202;50.866;12.750;2023-12-22T07:57:17;1.40;98.50
4376;DHT22;2202;50.866;12.750;2023-12-22T07:59:44;1.30;98.70
4376;DHT22;2202;50.866;12.750;2023-12-22T08:02:11;1.30;98.60
4376;DHT22;2202;50.866;12.750;2023-12-22T08:04:38;1.30;98.50
4376;DHT22;2202;50.866;12.750;2023-12-22T08:07:06;1.30;98.20
4376;DHT22;2202;50.866;12.750;2023-12-22T08:09:33;1.40;98.20
4376;DHT22;2202;50.866;12.750;2023-12-22T08:12:00;1.50;97.80
4376;DHT22;2202;50.866;12.750;2023-12-22T08:14:27;1.60;97.40
4376;DHT22;2202;50.866;12.750;2023-12-22T08:16:54;1.70;96.80
4376;DHT22;2202;50.866;12.750;2023-12-22T08:19:20;1.70;96.10
4376;DHT22;2202;50.866;12.750;2023-12-22T08:21:47;1.80;95.60
4376;DHT22;2202;50.866;12.750;2023-12-22T08:24:16;1.80;95.60
4376;DHT22;2202;50.866;12.750;2023-12-22T08:26:42;1.80;95.20
4376;DHT22;2202;50.866;12.750;2023-12-22T08:29:09;1.90;94.80
4376;DHT22;2202;50.866;12.750;2023-12-22T08:31:36;2.00;94.10
4376;DHT22;2202;50.866;12.750;2023-12-22T08:34:03;2.10;93.80
4376;DHT22;2202;50.866;12.750;2023-12-22T08:36:31;2.20;93.30
4376;DHT22;2202;50.866;12.750;2023-12-22T08:38:58;2.40;92.90
4376;DHT22;2202;50.866;12.750;2023-12-22T08:41:26;2.40;93.60
4376;DHT22;2202;50.866;12.750;2023-12-22T08:43:53;2.30;94.20
4376;DHT22;2202;50.866;12.750;2023-12-22T08:46:20;2.10;95.20
4376;DHT22;2202;50.866;12.750;2023-12-22T08:48:47;1.90;96.50
4376;DHT22;2202;50.866;12.750;2023-12-22T08:51:17;1.50;97.80
4376;DHT22;2202;50.866;12.750;2023-12-22T08:53:44;1.40;98.60
4376;DHT22;2202;50.866;12.750;2023-12-22T08:56:11;1.30;99.00
4376;DHT22;2202;50.866;12.750;2023-12-22T08:58:40;1.30;99.20
4376;DHT22;2202;50.866;12.750;2023-12-22T09:01:07;1.20;98.80
4376;DHT22;2202;50.866;12.750;2023-12-22T09:03:34;1.20;98.80
4376;DHT22;2202;50.866;12.750;2023-12-22T09:06:09;1.10;98.70
4376;DHT22;2202;50.866;12.750;2023-12-22T09:08:36;1.10;98.50
4376;DHT22;2202;50.866;12.750;2023-12-22T09:11:03;1.10;98.50
4376;DHT22;2202;50.866;12.750;2023-12-22T09:13:30;1.10;98.60
4376;DHT22;2202;50.866;12.750;2023-12-22T09:15:58;1.00;98.80
4376;DHT22;2202;50.866;12.750;2023-12-22T09:21:01;0.80;99.90
4376;DHT22;2202;50.866;12.750;2023-12-22T09:23:28;0.60;99.90
4376;DHT22;2202;50.866;12.750;2023-12-22T09:25:55;0.60;99.90
4376;DHT22;2202;50.866;12.750;2023-12-22T09:28:22;0.50;99.90
4376;DHT22;2202;50.866;12.750;2023-12-22T09:30:49;0.50;99.90
4376;DHT22;2202;50.866;12.750;2023-12-22T09:33:17;0.50;99.90
4376;DHT22;2202;50.866;12.750;2023-12-22T09:35:44;0.50;99.90
4376;DHT22;2202;50.866;12.750;2023-12-22T09:38:11;0.60;99.90
4376;DHT22;2202;50.866;12.750;2023-12-22T09:40:39;0.50;99.90
4376;DHT22;2202;50.866;12.750;2023-12-22T09:43:08;0.40;99.90
4376;DHT22;2202;50.866;12.750;2023-12-22T09:45:36;0.40;99.90
4376;DHT22;2202;50.866;12.750;2023-12-22T09:48:05;0.40;99.90
4376;DHT22;2202;50.866;12.750;2023-12-22T09:50:35;0.30;99.90
4376;DHT22;2202;50.866;12.750;2023-12-22T09:53:02;0.30;99.90
4376;DHT22;2202;50.866;12.750;2023-12-22T09:55:33;0.30;99.90
4376;DHT22;2202;50.866;12.750;2023-12-22T09:58:01;0.30;99.90
4376;DHT22;2202;50.866;12.750;2023-12-22T10:00:29;0.30;99.90
4376;DHT22;2202;50.866;12.750;2023-12-22T10:02:57;0.30;99.90
4376;DHT22;2202;50.866;12.750;2023-12-22T10:05:24;0.40;99.90
4376;DHT22;2202;50.866;12.750;2023-12-22T10:07:55;0.40;99.90
4376;DHT22;2202;50.866;12.750;2023-12-22T10:10:23;0.50;99.90
4376;DHT22;2202;50.866;12.750;2023-12-22T10:12:52;0.50;99.90
4376;DHT22;2202;50.866;12.750;2023-12-22T10:15:28;0.50;99.90
4376;DHT22;2202;50.866;12.750;2023-12-22T10:17:55;0.60;99.90
4376;DHT22;2202;50.866;12.750;2023-12-22T10:20:22;0.60;99.90
4376;DHT22;2202;50.866;12.750;2023-12-22T10:22:49;0.60;99.90
4376;DHT22;2202;50.866;12.750;2023-12-22T10:25:20;0.70;99.90
4376;DHT22;2202;50.866;12.750;2023-12-22T10:27:48;0.80;99.90
4376;DHT22;2202;50.866;12.750;2023-12-22T10:30:18;0.90;99.90
4376;DHT22;2202;50.866;12.750;2023-12-22T10:32:45;0.80;99.90
4376;DHT22;2202;50.866;12.750;2023-12-22T10:35:12;0.80;99.90
4376;DHT22;2202;50.866;12.750;2023-12-22T10:37:39;0.90;99.90
4376;DHT22;2202;50.866;12.750;2023-12-22T10:40:08;1.00;99.90
4376;DHT22;2202;50.866;12.750;2023-12-22T10:42:37;1.20;99.90
4376;DHT22;2202;50.866;12.750;2023-12-22T10:45:07;1.20;99.90
4376;DHT22;2202;50.866;12.750;2023-12-22T10:47:34;1.30;99.90
4376;DHT22;2202;50.866;12.750;2023-12-22T10:50:02;1.40;99.90
4376;DHT22;2202;50.866;12.750;2023-12-22T10:52:29;1.50;99.90
4376;DHT22;2202;50.866;12.750;2023-12-22T10:54:57;1.60;99.60
4376;DHT22;2202;50.866;12.750;2023-12-22T10:57:24;1.80;98.50
4376;DHT22;2202;50.866;12.750;2023-12-22T10:59:56;1.90;98.10
4376;DHT22;2202;50.866;12.750;2023-12-22T11:02:27;2.00;97.80
4376;DHT22;2202;50.866;12.750;2023-12-22T11:04:57;2.20;96.50
4376;DHT22;2202;50.866;12.750;2023-12-22T11:07:28;2.40;95.00
4376;DHT22;2202;50.866;12.750;2023-12-22T11:09:56;2.60;93.60
4376;DHT22;2202;50.866;12.750;2023-12-22T11:12:24;2.70;93.40
4376;DHT22;2202;50.866;12.750;2023-12-22T11:14:56;2.90;92.10
4376;DHT22;2202;50.866;12.750;2023-12-22T11:17:24;3.00;91.60
4376;DHT22;2202;50.866;12.750;2023-12-22T11:19:53;3.10;91.40
4376;DHT22;2202;50.866;12.750;2023-12-22T11:22:22;3.10;91.30
4376;DHT22;2202;50.866;12.750;2023-12-22T11:24:49;3.20;90.20
4376;DHT22;2202;50.866;12.750;2023-12-22T11:27:17;3.20;90.20
4376;DHT22;2202;50.866;12.750;2023-12-22T11:29:45;3.30;90.40
4376;DHT22;2202;50.866;12.750;2023-12-22T11:32:15;3.30;90.40
4376;DHT22;2202;50.866;12.750;2023-12-22T11:34:43;3.30;90.40
4376;DHT22;2202;50.866;12.750;2023-12-22T11:37:11;3.30;89.80
4376;DHT22;2202;50.866;12.750;2023-12-22T11:39:39;3.30;89.60
4376;DHT22;2202;50.866;12.750;2023-12-22T11:42:08;3.40;88.60
4376;DHT22;2202;50.866;12.750;2023-12-22T11:44:36;3.50;88.60
4376;DHT22;2202;50.866;12.750;2023-12-22T11:47:04;3.40;88.00
4376;DHT22;2202;50.866;12.750;2023-12-22T11:49:36;3.50;88.60
4376;DHT22;2202;50.866;12.750;2023-12-22T11:52:13;3.50;88.00
4376;DHT22;2202;50.866;12.750;2023-12-22T11:54:44;3.50;87.80
4376;DHT22;2202;50.866;12.750;2023-12-22T11:57:29;3.50;87.60
4376;DHT22;2202;50.866;12.750;2023-12-22T11:59:57;3.60;87.40
4376;DHT22;2202;50.866;12.750;2023-12-22T12:02:24;3.60;88.00
4376;DHT22;2202;50.866;12.750;2023-12-22T12:04:52;3.60;88.40
4376;DHT22;2202;50.866;12.750;2023-12-22T12:07:39;3.60;86.60
4376;DHT22;2202;50.866;12.750;2023-12-22T12:10:07;3.70;86.00
4376;DHT22;2202;50.866;12.750;2023-12-22T12:12:34;3.80;84.80
4376;DHT22;2202;50.866;12.750;2023-12-22T12:15:12;3.80;84.80
4376;DHT22;2202;50.866;12.750;2023-12-22T12:17:41;3.80;85.40
4376;DHT22;2202;50.866;12.750;2023-12-22T12:20:10;3.80;85.20
4376;DHT22;2202;50.866;12.750;2023-12-22T12:22:38;3.80;85.00
4376;DHT22;2202;50.866;12.750;2023-12-22T12:25:07;3.80;85.60
4376;DHT22;2202;50.866;12.750;2023-12-22T12:27:36;3.80;85.80
4376;DHT22;2202;50.866;12.750;2023-12-22T12:30:11;3.80;85.40
4376;DHT22;2202;50.866;12.750;2023-12-22T12:32:40;3.80;85.40
4376;DHT22;2202;50.866;12.750;2023-12-22T12:35:10;3.80;87.00
4376;DHT22;2202;50.866;12.750;2023-12-22T12:37:37;3.80;87.80
4376;DHT22;2202;50.866;12.750;2023-12-22T12:40:07;3.80;87.60
4376;DHT22;2202;50.866;12.750;2023-12-22T12:42:35;3.80;88.40
4376;DHT22;2202;50.866;12.750;2023-12-22T12:45:03;3.80;88.80
4376;DHT22;2202;50.866;12.750;2023-12-22T12:47:31;3.80;88.80
4376;DHT22;2202;50.866;12.750;2023-12-22T12:49:58;3.80;88.60
4376;DHT22;2202;50.866;12.750;2023-12-22T12:52:27;3.80;88.60
4376;DHT22;2202;50.866;12.750;2023-12-22T12:54:54;3.80;88.20
4376;DHT22;2202;50.866;12.750;2023-12-22T12:57:21;3.80;86.80
4376;DHT22;2202;50.866;12.750;2023-12-22T12:59:49;3.80;88.00
4376;DHT22;2202;50.866;12.750;2023-12-22T13:02:16;3.80;87.60
4376;DHT22;2202;50.866;12.750;2023-12-22T13:04:44;3.80;87.40
4376;DHT22;2202;50.866;12.750;2023-12-22T13:07:11;3.80;87.20
4376;DHT22;2202;50.866;12.750;2023-12-22T13:09:40;3.90;87.40
4376;DHT22;2202;50.866;12.750;2023-12-22T13:12:08;3.90;87.60
4376;DHT22;2202;50.866;12.750;2023-12-22T13:14:36;3.90;88.00
4376;DHT22;2202;50.866;12.750;2023-12-22T13:17:03;3.90;88.40
4376;DHT22;2202;50.866;12.750;2023-12-22T13:19:32;3.90;88.20
4376;DHT22;2202;50.866;12.750;2023-12-22T13:21:59;3.90;89.20
4376;DHT22;2202;50.866;12.750;2023-12-22T13:24:26;3.90;89.40
4376;DHT22;2202;50.866;12.750;2023-12-22T13:27:01;3.90;90.00
4376;DHT22;2202;50.866;12.750;2023-12-22T13:29:29;3.90;89.80
4376;DHT22;2202;50.866;12.750;2023-12-22T13:31:56;3.90;90.00
4376;DHT22;2202;50.866;12.750;2023-12-22T13:34:23;3.90;90.40
4376;DHT22;2202;50.866;12.750;2023-12-22T13:36:51;3.90;90.20
4376;DHT22;2202;50.866;12.750;2023-12-22T13:39:21;3.90;90.10
4376;DHT22;2202;50.866;12.750;2023-12-22T13:41:53;3.90;90.10
4376;DHT22;2202;50.866;12.750;2023-12-22T13:44:21;4.00;90.10
4376;DHT22;2202;50.866;12.750;2023-12-22T13:46:48;4.00;90.10
4376;DHT22;2202;50.866;12.750;2023-12-22T13:49:15;4.00;90.10
4376;DHT22;2202;50.866;12.750;2023-12-22T13:51:44;4.00;90.10
4376;DHT22;2202;50.866;12.750;2023-12-22T13:54:13;4.00;90.20
4376;DHT22;2202;50.866;12.750;2023-12-22T13:56:40;4.00;90.20
4376;DHT22;2202;50.866;12.750;2023-12-22T13:59:08;4.10;89.80
4376;DHT22;2202;50.866;12.750;2023-12-22T14:01:36;4.10;89.20
4376;DHT22;2202;50.866;12.750;2023-12-22T14:04:04;4.10;89.40
4376;DHT22;2202;50.866;12.750;2023-12-22T14:06:31;4.20;89.80
4376;DHT22;2202;50.866;12.750;2023-12-22T14:08:58;4.20;90.00
4376;DHT22;2202;50.866;12.750;2023-12-22T14:11:25;4.20;90.20
4376;DHT22;2202;50.866;12.750;2023-12-22T14:13:51;4.20;89.60
4376;DHT22;2202;50.866;12.750;2023-12-22T14:16:18;4.30;89.80
4376;DHT22;2202;50.866;12.750;2023-12-22T14:18:47;4.30;89.60
4376;DHT22;2202;50.866;12.750;2023-12-22T14:21:14;4.30;90.10
4376;DHT22;2202;50.866;12.750;2023-12-22T14:23:41;4.30;90.50
4376;DHT22;2202;50.866;12.750;2023-12-22T14:26:08;4.30;90.50
4376;DHT22;2202;50.866;12.750;2023-12-22T14:28:35;4.30;90.60
4376;DHT22;2202;50.866;12.750;2023-12-22T14:31:02;4.20;90.70
4376;DHT22;2202;50.866;12.750;2023-12-22T14:33:29;4.30;90.80
4376;DHT22;2202;50.866;12.750;2023-12-22T14:35:57;4.30;90.90
4376;DHT22;2202;50.866;12.750;2023-12-22T14:38:24;4.20;90.60
4376;DHT22;2202;50.866;12.750;2023-12-22T14:40:51;4.20;91.00
4376;DHT22;2202;50.866;12.750;2023-12-22T14:43:18;4.20;91.00
4376;DHT22;2202;50.866;12.750;2023-12-22T14:45:44;4.20;91.00
4376;DHT22;2202;50.866;12.750;2023-12-22T14:48:11;4.20;91.00
4376;DHT22;2202;50.866;12.750;2023-12-22T14:50:38;4.20;91.20
4376;DHT22;2202;50.866;12.750;2023-12-22T14:53:06;4.20;91.50
4376;DHT22;2202;50.866;12.750;2023-12-22T14:55:33;4.20;91.50
4376;DHT22;2202;50.866;12.750;2023-12-22T14:58:00;4.20;91.60
4376;DHT22;2202;50.866;12.750;2023-12-22T15:00:29;4.10;91.70
4376;DHT22;2202;50.866;12.750;2023-12-22T15:02:56;4.20;91.80
4376;DHT22;2202;50.866;12.750;2023-12-22T15:05:22;4.20;91.90
4376;DHT22;2202;50.866;12.750;2023-12-22T15:07:54;4.20;92.00
4376;DHT22;2202;50.866;12.750;2023-12-22T15:10:22;4.20;91.90
4376;DHT22;2202;50.866;12.750;2023-12-22T15:12:49;4.20;91.90
4376;DHT22;2202;50.866;12.750;2023-12-22T15:15:16;4.20;92.10
4376;DHT22;2202;50.866;12.750;2023-12-22T15:17:43;4.20;92.10
4376;DHT22;2202;50.866;12.750;2023-12-22T15:20:12;4.20;92.00
4376;DHT22;2202;50.866;12.750;2023-12-22T15:22:39;4.20;91.80
4376;DHT22;2202;50.866;12.750;2023-12-22T15:25:06;4.20;91.70
4376;DHT22;2202;50.866;12.750;2023-12-22T15:27:34;4.20;91.40
4376;DHT22;2202;50.866;12.750;2023-12-22T15:30:03;4.30;91.30
4376;DHT22;2202;50.866;12.750;2023-12-22T15:32:30;4.20;91.60
4376;DHT22;2202;50.866;12.750;2023-12-22T15:34:57;4.20;91.50
4376;DHT22;2202;50.866;12.750;2023-12-22T15:37:24;4.20;91.40
4376;DHT22;2202;50.866;12.750;2023-12-22T15:39:51;4.30;91.50
4376;DHT22;2202;50.866;12.750;2023-12-22T15:42:18;4.30;91.40
4376;DHT22;2202;50.866;12.750;2023-12-22T15:44:46;4.30;91.10
4376;DHT22;2202;50.866;12.750;2023-12-22T15:47:13;4.30;91.10
4376;DHT22;2202;50.866;12.750;2023-12-22T15:49:40;4.30;91.30
4376;DHT22;2202;50.866;12.750;2023-12-22T15:52:07;4.30;91.20
4376;DHT22;2202;50.866;12.750;2023-12-22T15:54:34;4.30;91.10
4376;DHT22;2202;50.866;12.750;2023-12-22T15:57:02;4.40;91.00
4376;DHT22;2202;50.866;12.750;2023-12-22T15:59:29;4.40;91.10
4376;DHT22;2202;50.866;12.750;2023-12-22T16:01:57;4.40;91.60
4376;DHT22;2202;50.866;12.750;2023-12-22T16:04:24;4.30;92.50
4376;DHT22;2202;50.866;12.750;2023-12-22T16:06:52;4.20;93.00
4376;DHT22;2202;50.866;12.750;2023-12-22T16:09:19;4.20;93.50